createdAt,value
2022-11-07T00:02:11.385Z,99837.28
2022-11-07T00:04:38.271Z,99841.31
2022-11-07T00:07:05.540Z,99840.19
2022-11-07T00:09:32.181Z,99842.31
2022-11-07T00:11:58.692Z,99850.97
2022-11-07T00:14:25.405Z,99840.69
2022-11-07T00:16:51.756Z,99851.81
2022-11-07T00:19:20.539Z,99857.91
2022-11-07T00:21:48.181Z,99865.59
2022-11-07T00:24:15.739Z,99851.09
2022-11-07T00:26:42.060Z,99856.72
2022-11-07T00:29:13.126Z,99862.38
2022-11-07T00:31:39.482Z,99861.66
2022-11-07T00:34:05.877Z,99863.94
2022-11-07T00:36:32.566Z,99878.44
2022-11-07T00:38:58.963Z,99877.63
2022-11-07T00:41:25.642Z,99888.50
2022-11-07T00:43:53.104Z,99891.16
2022-11-07T00:46:19.921Z,99884.72
2022-11-07T00:48:46.994Z,99876.50
2022-11-07T00:51:22.150Z,99884.25
2022-11-07T00:53:49.080Z,99887.31
2022-11-07T00:56:18.913Z,99887.50
2022-11-07T00:58:45.433Z,99890.81
2022-11-07T01:01:17.043Z,99888.09
2022-11-07T01:03:43.905Z,99892.91
2022-11-07T01:06:11.071Z,99889.06
2022-11-07T01:08:37.806Z,99897.50
2022-11-07T01:11:06.737Z,99902.84
2022-11-07T01:13:34.196Z,99897.44
2022-11-07T01:16:00.572Z,99909.00
2022-11-07T01:18:26.952Z,99903.66
2022-11-07T01:20:53.393Z,99909.19
2022-11-07T01:23:20.025Z,99909.97
2022-11-07T01:25:46.330Z,99913.91
2022-11-07T01:28:12.714Z,99910.63
2022-11-07T01:30:40.268Z,99905.44
2022-11-07T01:33:06.633Z,99917.13
2022-11-07T01:35:33.796Z,99913.91
2022-11-07T01:38:00.125Z,99919.22
2022-11-07T01:40:27.386Z,99917.50
2022-11-07T01:42:53.703Z,99918.72
2022-11-07T01:45:30.591Z,99913.38
2022-11-07T01:48:01.285Z,99914.53
2022-11-07T01:50:27.981Z,99909.66
2022-11-07T01:52:56.072Z,99912.06
2022-11-07T01:55:31.992Z,99914.47
2022-11-07T01:58:01.976Z,99907.47
2022-11-07T02:00:30.426Z,99919.53
2022-11-07T02:03:06.128Z,99915.63
2022-11-07T02:05:40.562Z,99909.91
2022-11-07T02:08:08.905Z,99918.00
2022-11-07T02:10:36.462Z,99913.47
2022-11-07T02:13:03.453Z,99921.63
2022-11-07T02:15:29.921Z,99921.78
2022-11-07T02:17:57.405Z,99912.56
2022-11-07T02:20:23.740Z,99913.66
2022-11-07T02:23:05.088Z,99917.72
2022-11-07T02:25:31.464Z,99912.66
2022-11-07T02:28:01.749Z,99914.09
2022-11-07T02:30:31.146Z,99918.53
2022-11-07T02:32:57.494Z,99919.97
2022-11-07T02:35:35.632Z,99901.44
2022-11-07T02:38:06.102Z,99903.38
2022-11-07T02:40:33.457Z,99907.22
2022-11-07T02:43:00.456Z,99905.00
2022-11-07T02:45:31.124Z,99890.44
2022-11-07T02:47:57.476Z,99897.13
2022-11-07T02:50:24.111Z,99898.03
2022-11-07T02:52:51.475Z,99896.00
2022-11-07T02:55:17.810Z,99915.56
2022-11-07T02:57:44.159Z,99914.91
2022-11-07T03:00:12.698Z,99916.72
2022-11-07T03:02:39.830Z,99911.84
2022-11-07T03:05:07.059Z,99915.41
2022-11-07T03:07:33.363Z,99920.38
2022-11-07T03:09:59.697Z,99913.31
2022-11-07T03:12:26.023Z,99919.56
2022-11-07T03:14:52.391Z,99919.06
2022-11-07T03:17:18.731Z,99925.91
2022-11-07T03:19:45.039Z,99924.03
2022-11-07T03:22:11.335Z,99928.22
2022-11-07T03:24:38.301Z,99926.94
2022-11-07T03:27:04.614Z,99933.03
2022-11-07T03:29:30.937Z,99938.97
2022-11-07T03:31:57.246Z,99933.66
2022-11-07T03:34:23.604Z,99934.34
2022-11-07T03:36:49.938Z,99938.53
2022-11-07T03:39:17.117Z,99937.03
2022-11-07T03:41:44.866Z,99938.34
2022-11-07T03:44:11.200Z,99948.88
2022-11-07T03:46:37.517Z,99931.34
2022-11-07T03:49:03.891Z,99943.94
2022-11-07T03:51:30.227Z,99936.34
2022-11-07T03:53:56.544Z,99949.78
2022-11-07T03:56:22.848Z,99953.44
2022-11-07T03:58:49.206Z,99944.81
2022-11-07T04:01:15.720Z,99948.81
2022-11-07T04:03:42.077Z,99952.81
2022-11-07T04:06:08.452Z,99948.97
2022-11-07T04:08:35.561Z,99957.81
2022-11-07T04:11:01.913Z,99953.31
2022-11-07T04:13:28.252Z,99960.84
2022-11-07T04:15:55.138Z,99960.53
2022-11-07T04:18:21.444Z,99959.56
2022-11-07T04:20:47.784Z,99960.06
2022-11-07T04:23:14.370Z,99973.13
2022-11-07T04:25:40.906Z,99966.28
2022-11-07T04:28:07.244Z,99964.97
2022-11-07T04:30:33.554Z,99966.69
2022-11-07T04:33:02.840Z,99973.44
2022-11-07T04:35:32.899Z,99971.34
2022-11-07T04:38:00.620Z,99971.03
2022-11-07T04:40:28.080Z,99981.56
2022-11-07T04:42:55.233Z,99975.34
2022-11-07T04:45:21.802Z,99975.00
2022-11-07T04:47:48.518Z,99974.00
2022-11-07T04:50:17.761Z,99963.31
2022-11-07T04:52:45.812Z,99971.78
2022-11-07T04:55:19.177Z,99967.66
2022-11-07T04:57:45.524Z,99976.41
2022-11-07T05:00:12.306Z,99964.59
2022-11-07T05:02:38.709Z,99962.28
2022-11-07T05:05:05.620Z,99962.03
2022-11-07T05:07:31.961Z,99959.44
2022-11-07T05:09:58.250Z,99968.75
2022-11-07T05:12:24.572Z,99960.16
2022-11-07T05:14:50.881Z,99962.03
2022-11-07T05:17:17.415Z,99963.63
2022-11-07T05:19:43.777Z,99967.16
2022-11-07T05:22:10.943Z,99967.16
2022-11-07T05:24:37.267Z,99964.25
2022-11-07T05:27:03.663Z,99965.97
2022-11-07T05:29:29.998Z,99960.34
2022-11-07T05:31:57.290Z,99966.19
2022-11-07T05:34:23.714Z,99956.97
2022-11-07T05:36:50.074Z,99962.16
2022-11-07T05:39:16.460Z,99968.94
2022-11-07T05:41:42.764Z,99962.78
2022-11-07T05:44:10.510Z,99967.75
2022-11-07T05:46:36.841Z,99966.13
2022-11-07T05:49:03.140Z,99976.03
2022-11-07T05:51:29.464Z,99971.78
2022-11-07T05:53:55.764Z,99977.22
2022-11-07T05:56:22.083Z,99983.00
2022-11-07T05:58:48.415Z,99981.41
2022-11-07T06:01:14.775Z,99983.25
2022-11-07T06:03:41.125Z,99978.81
2022-11-07T06:06:07.497Z,99991.13
2022-11-07T06:08:33.824Z,99979.34
2022-11-07T06:11:04.581Z,99984.84
2022-11-07T06:13:30.880Z,99985.53
2022-11-07T06:15:57.683Z,99987.94
2022-11-07T06:18:24.031Z,99983.94
2022-11-07T06:20:50.467Z,99992.09
2022-11-07T06:23:17.331Z,99992.72
2022-11-07T06:25:43.850Z,99998.50
2022-11-07T06:28:12.322Z,100006.03
2022-11-07T06:30:38.976Z,100004.72
2022-11-07T06:33:12.659Z,99998.50
2022-11-07T06:35:39.529Z,100000.28
2022-11-07T06:38:08.423Z,99995.84
2022-11-07T06:40:34.823Z,100001.09
2022-11-07T06:43:13.393Z,100001.03
2022-11-07T06:45:40.617Z,100004.47
2022-11-07T06:48:08.192Z,100005.00
2022-11-07T06:50:34.745Z,100017.31
2022-11-07T06:53:05.655Z,100016.34
2022-11-07T06:55:34.141Z,100020.66
2022-11-07T06:58:01.037Z,100022.75
2022-11-07T07:00:28.905Z,100029.09
2022-11-07T07:02:58.821Z,100033.69
2022-11-07T07:05:25.510Z,100028.59
2022-11-07T07:07:51.868Z,100029.38
2022-11-07T07:10:18.202Z,100034.34
2022-11-07T07:12:44.501Z,100032.38
2022-11-07T07:15:10.870Z,100045.34
2022-11-07T07:17:37.335Z,100049.19
2022-11-07T07:20:04.643Z,100035.47
2022-11-07T07:22:30.982Z,100038.53
2022-11-07T07:24:57.334Z,100030.66
2022-11-07T07:27:23.734Z,100038.50
2022-11-07T07:29:50.052Z,100035.34
2022-11-07T07:32:16.369Z,100039.53
2022-11-07T07:34:42.697Z,100042.63
2022-11-07T07:37:09.235Z,100041.31
2022-11-07T07:39:35.616Z,100044.97
2022-11-07T07:42:01.926Z,100048.16
2022-11-07T07:44:28.263Z,100038.78
2022-11-07T07:46:54.567Z,100046.34
2022-11-07T07:49:20.891Z,100051.63
2022-11-07T07:51:47.194Z,100046.84
2022-11-07T07:54:13.765Z,100052.72
2022-11-07T07:56:40.094Z,100050.78
2022-11-07T07:59:06.462Z,100045.81
2022-11-07T08:01:33.043Z,100039.97
2022-11-07T08:04:01.933Z,100050.88
2022-11-07T08:06:29.160Z,100039.97
2022-11-07T08:08:55.516Z,100046.53
2022-11-07T08:11:21.859Z,100052.16
2022-11-07T08:13:48.156Z,100047.44
2022-11-07T08:16:14.520Z,100058.63
2022-11-07T08:18:40.834Z,100062.19
2022-11-07T08:21:07.366Z,100052.25
2022-11-07T08:23:33.754Z,100061.53
2022-11-07T08:26:00.646Z,100056.19
2022-11-07T08:28:29.656Z,100060.81
2022-11-07T08:31:01.878Z,100055.38
2022-11-07T08:33:28.701Z,100054.72
2022-11-07T08:35:56.462Z,100056.81
2022-11-07T08:38:23.582Z,100061.94
2022-11-07T08:40:50.442Z,100053.88
2022-11-07T08:43:17.201Z,100055.69
2022-11-07T08:45:45.516Z,100052.66
2022-11-07T08:48:12.028Z,100057.31
2022-11-07T08:50:38.398Z,100050.59
2022-11-07T08:53:05.126Z,100057.81
2022-11-07T08:55:31.994Z,100056.38
2022-11-07T08:58:02.786Z,100052.41
2022-11-07T09:00:29.759Z,100049.19
2022-11-07T09:05:42.440Z,100049.69
2022-11-07T09:08:08.775Z,100050.59
2022-11-07T09:10:35.135Z,100059.38
2022-11-07T09:13:01.520Z,100048.28
2022-11-07T09:15:28.073Z,100051.44
2022-11-07T09:17:54.387Z,100051.84
2022-11-07T09:20:20.941Z,100048.72
2022-11-07T09:22:47.273Z,100050.31
2022-11-07T09:25:13.842Z,100053.06
2022-11-07T09:27:40.194Z,100062.16
2022-11-07T09:30:07.337Z,100055.19
2022-11-07T09:32:48.520Z,100059.50
2022-11-07T09:35:14.860Z,100061.31
2022-11-07T09:37:41.938Z,100068.78
2022-11-07T09:40:34.476Z,100077.22
2022-11-07T09:43:12.741Z,100069.31
2022-11-07T09:45:52.800Z,100074.78
2022-11-07T09:48:24.014Z,100071.56
2022-11-07T09:50:51.564Z,100077.44
2022-11-07T09:53:38.360Z,100086.16
2022-11-07T09:56:07.613Z,100086.13
2022-11-07T09:58:37.916Z,100087.19
2022-11-07T10:01:07.273Z,100088.25
2022-11-07T10:03:36.436Z,100093.31
2022-11-07T10:06:30.886Z,100086.81
2022-11-07T10:09:16.419Z,100097.25
2022-11-07T10:11:51.958Z,100100.16
2022-11-07T10:14:18.228Z,100095.03
2022-11-07T10:16:56.700Z,100099.88
2022-11-07T10:19:37.762Z,100098.22
2022-11-07T10:22:10.047Z,100094.69
2022-11-07T10:25:03.422Z,100100.69
2022-11-07T10:27:32.802Z,100103.06
2022-11-07T10:30:00.578Z,100111.22
2022-11-07T10:32:36.054Z,100107.56
2022-11-07T10:35:38.419Z,100115.41
2022-11-07T10:38:17.608Z,100111.59
2022-11-07T10:40:46.626Z,100108.66
2022-11-07T10:43:22.377Z,100109.72
2022-11-07T10:45:49.295Z,100103.63
2022-11-07T10:48:16.061Z,100102.03
2022-11-07T10:50:54.047Z,100107.47
2022-11-07T10:53:22.250Z,100110.13
2022-11-07T10:55:50.707Z,100104.38
2022-11-07T10:58:35.601Z,100107.91
2022-11-07T11:01:08.529Z,100099.38
2022-11-07T11:03:46.042Z,100101.69
2022-11-07T11:06:18.597Z,100101.44
2022-11-07T11:08:46.697Z,100103.47
2022-11-07T11:11:18.841Z,100101.00
2022-11-07T11:13:45.729Z,100110.41
2022-11-07T11:16:29.695Z,100105.16
2022-11-07T11:18:59.506Z,100094.56
2022-11-07T11:21:26.031Z,100087.78
2022-11-07T11:23:54.037Z,100103.91
2022-11-07T11:26:33.358Z,100081.00
2022-11-07T11:29:03.097Z,100087.72
2022-11-07T11:31:34.667Z,100088.72
2022-11-07T11:34:18.880Z,100089.66
2022-11-07T11:36:55.134Z,100079.41
2022-11-07T11:39:28.490Z,100089.09
2022-11-07T11:41:59.047Z,100098.06
2022-11-07T11:44:41.636Z,100095.56
2022-11-07T11:47:07.950Z,100090.09
2022-11-07T11:49:42.987Z,100089.16
2022-11-07T11:52:15.913Z,100096.81
2022-11-07T11:54:44.476Z,100096.44
2022-11-07T11:57:17.714Z,100088.84
2022-11-07T12:00:16.929Z,100094.84
2022-11-07T12:02:58.313Z,100102.88
2022-11-07T12:05:55.804Z,100115.59
2022-11-07T12:08:46.784Z,100110.16
2022-11-07T12:11:41.275Z,100106.81
2022-11-07T12:14:14.430Z,100097.56
2022-11-07T12:16:49.150Z,100102.06
2022-11-07T12:19:15.406Z,100120.41
2022-11-07T12:21:53.272Z,100113.13
2022-11-07T12:24:41.438Z,100118.28
2022-11-07T12:27:10.488Z,100123.19
2022-11-07T12:30:05.757Z,100120.47
2022-11-07T12:32:44.086Z,100122.72
2022-11-07T12:35:32.630Z,100123.06
2022-11-07T12:38:19.079Z,100129.84
2022-11-07T12:41:06.835Z,100137.50
2022-11-07T12:44:01.169Z,100136.81
2022-11-07T12:46:36.268Z,100141.97
2022-11-07T12:49:24.496Z,100134.44
2022-11-07T12:52:04.058Z,100129.31
2022-11-07T12:54:44.322Z,100144.06
2022-11-07T12:57:22.251Z,100144.72
2022-11-07T12:59:55.582Z,100142.31
2022-11-07T13:02:30.234Z,100143.59
2022-11-07T13:05:17.843Z,100132.81
2022-11-07T13:07:57.082Z,100138.22
2022-11-07T13:10:33.135Z,100128.72
2022-11-07T13:13:14.846Z,100142.72
2022-11-07T13:16:09.059Z,100138.91
2022-11-07T13:18:28.183Z,100128.66
2022-11-07T13:21:05.830Z,100133.66
2022-11-07T13:23:32.623Z,100136.53
2022-11-07T13:26:04.006Z,100137.16
2022-11-07T13:28:36.192Z,100142.94
2022-11-07T13:31:07.623Z,100141.31
2022-11-07T13:33:35.933Z,100137.75
2022-11-07T13:36:14.890Z,100139.00
2022-11-07T13:38:52.564Z,100129.84
2022-11-07T13:41:19.964Z,100125.16
2022-11-07T13:44:05.068Z,100133.41
2022-11-07T13:46:36.986Z,100125.72
2022-11-07T13:49:20.283Z,100128.63
2022-11-07T13:51:51.726Z,100118.84
2022-11-07T13:54:35.282Z,100126.09
2022-11-07T13:57:35.035Z,100123.03
2022-11-07T14:00:06.697Z,100125.75
2022-11-07T14:02:34.733Z,100125.94
2022-11-07T14:05:16.867Z,100124.03
2022-11-07T14:08:13.743Z,100123.38
2022-11-07T14:10:44.024Z,100126.22
2022-11-07T14:13:38.250Z,100127.22
2022-11-07T14:16:24.982Z,100136.50
2022-11-07T14:18:58.994Z,100138.59
2022-11-07T14:21:27.789Z,100151.13
2022-11-07T14:23:54.254Z,100144.06
2022-11-07T14:26:20.629Z,100145.84
2022-11-07T14:28:47.949Z,100148.22
2022-11-07T14:31:20.694Z,100146.31
2022-11-07T14:33:52.662Z,100153.69
2022-11-07T14:36:19.929Z,100156.25
2022-11-07T14:38:50.846Z,100147.59
2022-11-07T14:41:18.200Z,100152.56
2022-11-07T14:43:46.123Z,100154.00
2022-11-07T14:46:19.657Z,100153.53
2022-11-07T14:48:47.413Z,100149.53
2022-11-07T14:51:17.401Z,100150.63
2022-11-07T14:54:09.580Z,100138.91
2022-11-07T14:56:42.368Z,100146.31
2022-11-07T14:59:13.757Z,100137.31
2022-11-07T15:01:52.249Z,100132.84
2022-11-07T15:04:37.681Z,100147.56
2022-11-07T15:07:12.719Z,100142.97
2022-11-07T15:09:39.090Z,100150.66
2022-11-07T15:12:14.367Z,100143.59
2022-11-07T15:14:40.837Z,100138.13
2022-11-07T15:17:16.607Z,100145.34
2022-11-07T15:19:55.437Z,100148.56
2022-11-07T15:22:28.402Z,100149.84
2022-11-07T15:24:54.795Z,100160.75
2022-11-07T15:27:28.987Z,100152.72
2022-11-07T15:30:03.675Z,100153.88
2022-11-07T15:32:35.075Z,100159.63
2022-11-07T15:35:37.919Z,100158.66
2022-11-07T15:38:01.068Z,100157.69
2022-11-07T15:40:29.361Z,100155.31
2022-11-07T15:42:55.696Z,100162.69
2022-11-07T15:45:22.629Z,100158.34
2022-11-07T15:47:49.529Z,100154.50
2022-11-07T15:50:19.305Z,100154.66
2022-11-07T15:52:46.446Z,100151.94
2022-11-07T15:55:18.589Z,100149.53
2022-11-07T15:57:46.628Z,100152.72
2022-11-07T16:00:26.463Z,100156.41
2022-11-07T16:02:53.300Z,100156.25
2022-11-07T16:05:19.860Z,100158.34
2022-11-07T16:07:46.480Z,100158.34
2022-11-07T16:10:24.000Z,100160.09
2022-11-07T16:12:51.317Z,100163.13
2022-11-07T16:15:20.568Z,100164.44
2022-11-07T16:17:47.262Z,100162.50
2022-11-07T16:20:19.608Z,100162.84
2022-11-07T16:22:47.462Z,100164.59
2022-11-07T16:25:21.556Z,100165.72
2022-11-07T16:27:50.103Z,100169.38
2022-11-07T16:30:18.229Z,100174.03
2022-11-07T16:32:44.680Z,100174.69
2022-11-07T16:35:11.366Z,100179.03
2022-11-07T16:37:38.095Z,100180.13
2022-11-07T16:40:06.974Z,100171.81
2022-11-07T16:42:33.285Z,100171.16
2022-11-07T16:44:59.758Z,100176.47
2022-11-07T16:47:26.136Z,100172.28
2022-11-07T16:49:55.945Z,100178.84
2022-11-07T16:52:22.580Z,100178.69
2022-11-07T16:54:48.896Z,100178.19
2022-11-07T16:57:17.487Z,100176.13
2022-11-07T16:59:45.412Z,100183.66
2022-11-07T17:02:23.554Z,100182.06
2022-11-07T17:04:51.305Z,100181.59
2022-11-07T17:07:19.446Z,100173.91
2022-11-07T17:09:45.849Z,100178.84
2022-11-07T17:12:16.490Z,100176.31
2022-11-07T17:14:43.124Z,100185.75
2022-11-07T17:17:12.633Z,100176.47
2022-11-07T17:19:39.363Z,100190.56
2022-11-07T17:22:06.301Z,100180.78
2022-11-07T17:24:32.654Z,100176.94
2022-11-07T17:26:59.207Z,100178.56
2022-11-07T17:29:25.698Z,100183.84
2022-11-07T17:31:52.478Z,100183.84
2022-11-07T17:34:19.042Z,100189.94
2022-11-07T17:36:50.568Z,100183.03
2022-11-07T17:39:19.534Z,100182.22
2022-11-07T17:41:49.940Z,100185.44
2022-11-07T17:44:17.056Z,100185.91
2022-11-07T17:46:46.359Z,100198.91
2022-11-07T17:49:14.856Z,100187.03
2022-11-07T17:51:41.667Z,100191.34
2022-11-07T17:54:11.206Z,100195.03
2022-11-07T17:56:37.568Z,100198.25
2022-11-07T17:59:06.840Z,100205.78
2022-11-07T18:01:35.753Z,100198.91
2022-11-07T18:04:03.202Z,100198.25
2022-11-07T18:06:29.966Z,100199.22
2022-11-07T18:08:58.367Z,100192.97
2022-11-07T18:11:27.382Z,100201.28
2022-11-07T18:13:55.010Z,100203.72
2022-11-07T18:16:25.389Z,100194.75
2022-11-07T18:18:51.892Z,100205.47
2022-11-07T18:21:18.538Z,100198.41
2022-11-07T18:23:44.943Z,100208.69
2022-11-07T18:26:20.389Z,100202.72
2022-11-07T18:28:48.349Z,100203.06
2022-11-07T18:31:17.262Z,100196.84
2022-11-07T18:33:44.280Z,100209.31
2022-11-07T18:36:14.118Z,100205.31
2022-11-07T18:38:40.649Z,100199.69
2022-11-07T18:41:11.187Z,100207.84
2022-11-07T18:43:38.001Z,100206.06
2022-11-07T18:46:09.361Z,100199.31
2022-11-07T18:48:37.653Z,100204.31
2022-11-07T18:51:09.299Z,100189.56
2022-11-07T18:53:35.636Z,100196.56
2022-11-07T18:56:05.302Z,100190.31
2022-11-07T18:58:33.858Z,100195.94
2022-11-07T19:01:08.824Z,100203.91
2022-11-07T19:03:36.566Z,100193.69
2022-11-07T19:06:11.452Z,100201.53
2022-11-07T19:08:38.675Z,100205.53
2022-11-07T19:11:08.393Z,100202.19
2022-11-07T19:13:36.717Z,100189.69
2022-11-07T19:16:05.077Z,100196.56
2022-11-07T19:18:31.746Z,100199.16
2022-11-07T19:20:58.154Z,100204.59
2022-11-07T19:23:24.737Z,100211.81
2022-11-07T19:25:51.256Z,100205.91
2022-11-07T19:28:17.762Z,100200.63
2022-11-07T19:30:44.534Z,100198.88
2022-11-07T19:33:11.238Z,100204.47
2022-11-07T19:35:39.816Z,100204.44
2022-11-07T19:38:09.011Z,100209.41
2022-11-07T19:40:35.873Z,100205.41
2022-11-07T19:43:03.160Z,100206.53
2022-11-07T19:45:30.095Z,100210.22
2022-11-07T19:47:56.414Z,100208.13
2022-11-07T19:50:23.043Z,100205.63
2022-11-07T19:52:50.163Z,100203.06
2022-11-07T19:55:16.684Z,100206.41
2022-11-07T19:57:43.012Z,100204.78
2022-11-07T20:00:09.942Z,100212.66
2022-11-07T20:02:41.480Z,100209.63
2022-11-07T20:05:10.620Z,100210.44
2022-11-07T20:07:37.877Z,100206.72
2022-11-07T20:10:04.517Z,100214.44
2022-11-07T20:12:30.864Z,100204.00
2022-11-07T20:14:57.220Z,100211.75
2022-11-07T20:17:23.560Z,100222.44
2022-11-07T20:19:49.869Z,100206.28
2022-11-07T20:22:16.238Z,100213.63
2022-11-07T20:24:42.605Z,100215.25
2022-11-07T20:27:08.987Z,100208.53
2022-11-07T20:29:37.954Z,100211.91
2022-11-07T20:32:04.497Z,100217.66
2022-11-07T20:34:33.533Z,100204.97
2022-11-07T20:36:59.873Z,100208.16
2022-11-07T20:39:26.243Z,100213.97
2022-11-07T20:41:52.565Z,100212.53
2022-11-07T20:44:18.894Z,100212.97
2022-11-07T20:46:45.375Z,100215.72
2022-11-07T20:49:14.095Z,100221.34
2022-11-07T20:51:40.660Z,100220.22
2022-11-07T20:54:11.790Z,100226.16
2022-11-07T20:56:38.093Z,100222.94
2022-11-07T20:59:04.743Z,100216.56
2022-11-07T21:01:32.837Z,100218.47
2022-11-07T21:04:10.866Z,100226.34
2022-11-07T21:06:37.264Z,100220.38
2022-11-07T21:09:05.345Z,100230.66
2022-11-07T21:11:31.910Z,100232.72
2022-11-07T21:13:58.429Z,100233.56
2022-11-07T21:16:25.987Z,100228.41
2022-11-07T21:18:56.393Z,100236.44
2022-11-07T21:21:25.429Z,100240.28
2022-11-07T21:23:52.353Z,100237.38
2022-11-07T21:26:24.852Z,100239.31
2022-11-07T21:28:51.173Z,100235.31
2022-11-07T21:31:20.187Z,100241.25
2022-11-07T21:33:46.529Z,100241.41
2022-11-07T21:36:15.765Z,100239.69
2022-11-07T21:38:42.295Z,100233.25
2022-11-07T21:41:10.096Z,100233.41
2022-11-07T21:43:37.299Z,100234.25
2022-11-07T21:46:08.101Z,100231.16
2022-11-07T21:48:35.416Z,100236.59
2022-11-07T21:51:12.122Z,100231.03
2022-11-07T21:53:38.538Z,100229.06
2022-11-07T21:56:06.311Z,100229.38
2022-11-07T21:58:33.045Z,100230.34
2022-11-07T22:01:05.971Z,100234.81
2022-11-07T22:04:03.695Z,100225.06
2022-11-07T22:06:20.265Z,100223.34
2022-11-07T22:08:48.166Z,100222.84
2022-11-07T22:11:16.114Z,100236.47
2022-11-07T22:13:42.773Z,100231.81
2022-11-07T22:16:16.437Z,100225.56
2022-11-07T22:18:43.336Z,100227.78
2022-11-07T22:21:12.791Z,100228.78
2022-11-07T22:23:41.561Z,100226.84
2022-11-07T22:26:15.903Z,100225.69
2022-11-07T22:28:45.749Z,100212.72
2022-11-07T22:31:24.348Z,100217.22
2022-11-07T22:33:52.021Z,100218.16
2022-11-07T22:36:21.716Z,100219.94
2022-11-07T22:38:48.777Z,100218.66
2022-11-07T22:41:17.747Z,100219.59
2022-11-07T22:43:44.453Z,100214.31
2022-11-07T22:46:14.140Z,100219.75
2022-11-07T22:48:41.368Z,100214.66
2022-11-07T22:51:10.160Z,100214.47
2022-11-07T22:53:37.117Z,100205.16
2022-11-07T22:56:11.371Z,100200.50
2022-11-07T22:58:38.889Z,100210.78
2022-11-07T23:01:06.632Z,100210.13
2022-11-07T23:03:33.291Z,100211.56
2022-11-07T23:06:04.029Z,100200.66
2022-11-07T23:08:34.205Z,100208.38
2022-11-07T23:13:51.865Z,100209.50
2022-11-07T23:16:32.142Z,100205.66
2022-11-07T23:19:00.673Z,100210.28
2022-11-07T23:21:27.038Z,100203.25
2022-11-07T23:23:54.837Z,100208.38
2022-11-07T23:26:21.278Z,100204.97
2022-11-07T23:28:47.660Z,100203.19
2022-11-07T23:31:14.761Z,100204.78
2022-11-07T23:33:41.514Z,100210.72
2022-11-07T23:36:12.369Z,100206.03
2022-11-07T23:38:38.794Z,100202.66
2022-11-07T23:41:07.622Z,100209.34
2022-11-07T23:43:34.626Z,100207.25
2022-11-07T23:46:01.901Z,100215.72
2022-11-07T23:48:28.223Z,100212.97
2022-11-07T23:50:54.539Z,100205.75
2022-11-07T23:53:20.887Z,100207.78
2022-11-07T23:55:47.202Z,100215.28
2022-11-07T23:58:13.570Z,100210.16
